sensor_id;sensor_type;location;lat;lon;timestamp;pressure;altitude;pressure_sealevel;temperature;humidity
8318;BME280;4196;48.926;8.964;2023-06-22T00:00:29;99054.56;;;18.98;100.00
8318;BME280;4196;48.926;8.964;2023-06-22T00:03:18;99016.00;;;18.77;100.00
8318;BME280;4196;48.926;8.964;2023-06-22T00:06:05;99017.84;;;18.75;100.00
8318;BME280;4196;48.926;8.964;2023-06-22T00:08:51;99036.88;;;18.80;100.00
8318;BME280;4196;48.926;8.964;2023-06-22T00:11:38;99030.22;;;18.70;100.00
8318;BME280;4196;48.926;8.964;2023-06-22T00:14:25;99030.22;;;18.70;100.00
8318;BME280;4196;48.926;8.964;2023-06-22T00:17:11;99029.34;;;18.71;100.00
8318;BME280;4196;48.926;8.964;2023-06-22T00:19:58;99020.06;;;18.61;100.00
8318;BME280;4196;48.926;8.964;2023-06-22T00:22:44;99044.25;;;18.69;100.00
8318;BME280;4196;48.926;8.964;2023-06-22T00:25:31;98990.31;;;18.37;100.00
8318;BME280;4196;48.926;8.964;2023-06-22T00:28:17;99051.31;;;18.67;100.00
8318;BME280;4196;48.926;8.964;2023-06-22T00:31:04;99046.34;;;18.59;100.00
8318;BME280;4196;48.926;8.964;2023-06-22T00:33:50;99040.31;;;18.57;100.00
8318;BME280;4196;48.926;8.964;2023-06-22T00:36:37;99023.38;;;18.66;100.00
8318;BME280;4196;48.926;8.964;2023-06-22T00:39:23;99060.94;;;18.66;100.00
8318;BME280;4196;48.926;8.964;2023-06-22T00:42:10;99069.66;;;18.67;100.00
8318;BME280;4196;48.926;8.964;2023-06-22T00:44:56;99051.09;;;18.48;100.00
8318;BME280;4196;48.926;8.964;2023-06-22T00:47:43;99074.75;;;18.46;100.00
8318;BME280;4196;48.926;8.964;2023-06-22T00:50:32;99116.09;;;18.65;100.00
8318;BME280;4196;48.926;8.964;2023-06-22T00:53:21;99159.41;;;18.78;100.00
8318;BME280;4196;48.926;8.964;2023-06-22T00:56:08;99160.44;;;18.72;100.00
8318;BME280;4196;48.926;8.964;2023-06-22T00:58:57;99107.72;;;19.03;100.00
8318;BME280;4196;48.926;8.964;2023-06-22T01:01:44;99101.31;;;19.36;100.00
8318;BME280;4196;48.926;8.964;2023-06-22T01:04:35;99122.47;;;19.54;100.00
8318;BME280;4196;48.926;8.964;2023-06-22T01:07:35;99070.78;;;19.10;100.00
8318;BME280;4196;48.926;8.964;2023-06-22T01:10:34;99092.63;;;19.10;100.00
8318;BME280;4196;48.926;8.964;2023-06-22T01:16:37;99061.69;;;18.70;100.00
8318;BME280;4196;48.926;8.964;2023-06-22T01:19:39;99089.56;;;18.74;100.00
8318;BME280;4196;48.926;8.964;2023-06-22T01:22:31;99097.63;;;18.68;100.00
8318;BME280;4196;48.926;8.964;2023-06-22T01:25:20;99082.00;;;18.65;100.00
8318;BME280;4196;48.926;8.964;2023-06-22T01:31:24;99056.34;;;18.23;100.00
8318;BME280;4196;48.926;8.964;2023-06-22T01:34:12;99085.81;;;18.29;100.00
8318;BME280;4196;48.926;8.964;2023-06-22T01:37:01;99058.47;;;18.12;100.00
8318;BME280;4196;48.926;8.964;2023-06-22T01:39:48;99040.69;;;17.95;100.00
8318;BME280;4196;48.926;8.964;2023-06-22T01:42:36;99051.91;;;17.98;100.00
8318;BME280;4196;48.926;8.964;2023-06-22T01:45:27;99060.72;;;17.96;100.00
8318;BME280;4196;48.926;8.964;2023-06-22T01:48:13;99065.94;;;17.97;100.00
8318;BME280;4196;48.926;8.964;2023-06-22T01:51:00;99053.22;;;17.85;100.00
8318;BME280;4196;48.926;8.964;2023-06-22T01:53:46;99078.03;;;18.01;100.00
8318;BME280;4196;48.926;8.964;2023-06-22T01:56:34;99082.44;;;17.99;100.00
8318;BME280;4196;48.926;8.964;2023-06-22T01:59:34;99061.31;;;17.77;100.00
8318;BME280;4196;48.926;8.964;2023-06-22T02:02:21;99062.28;;;17.73;100.00
8318;BME280;4196;48.926;8.964;2023-06-22T02:05:16;99066.84;;;17.67;100.00
8318;BME280;4196;48.926;8.964;2023-06-22T02:08:09;99056.06;;;17.49;100.00
8318;BME280;4196;48.926;8.964;2023-06-22T02:10:57;99076.56;;;17.63;100.00
8318;BME280;4196;48.926;8.964;2023-06-22T02:13:45;99100.50;;;17.80;100.00
8318;BME280;4196;48.926;8.964;2023-06-22T02:16:33;99103.34;;;17.73;100.00
8318;BME280;4196;48.926;8.964;2023-06-22T02:19:23;99105.03;;;17.74;100.00
8318;BME280;4196;48.926;8.964;2023-06-22T02:22:12;99065.53;;;17.53;100.00
8318;BME280;4196;48.926;8.964;2023-06-22T02:25:03;99040.53;;;17.43;100.00
8318;BME280;4196;48.926;8.964;2023-06-22T02:27:49;99087.56;;;17.76;100.00
8318;BME280;4196;48.926;8.964;2023-06-22T02:30:36;99074.81;;;17.63;100.00
8318;BME280;4196;48.926;8.964;2023-06-22T02:33:23;99072.41;;;17.57;100.00
8318;BME280;4196;48.926;8.964;2023-06-22T02:36:09;99055.44;;;17.41;100.00
8318;BME280;4196;48.926;8.964;2023-06-22T02:38:59;99058.25;;;17.35;100.00
8318;BME280;4196;48.926;8.964;2023-06-22T02:41:53;99039.25;;;17.28;100.00
8318;BME280;4196;48.926;8.964;2023-06-22T02:44:41;99077.19;;;17.43;100.00
8318;BME280;4196;48.926;8.964;2023-06-22T02:47:27;99070.34;;;17.39;100.00
8318;BME280;4196;48.926;8.964;2023-06-22T02:50:14;99078.19;;;17.39;100.00
8318;BME280;4196;48.926;8.964;2023-06-22T02:53:01;99046.41;;;17.23;100.00
8318;BME280;4196;48.926;8.964;2023-06-22T02:55:51;99024.19;;;17.07;100.00
8318;BME280;4196;48.926;8.964;2023-06-22T02:58:38;99037.22;;;17.08;100.00
8318;BME280;4196;48.926;8.964;2023-06-22T03:01:30;99067.97;;;17.30;100.00
8318;BME280;4196;48.926;8.964;2023-06-22T03:04:18;99043.09;;;17.17;100.00
8318;BME280;4196;48.926;8.964;2023-06-22T03:07:04;99069.06;;;17.23;100.00
8318;BME280;4196;48.926;8.964;2023-06-22T03:09:52;99052.56;;;17.21;100.00
8318;BME280;4196;48.926;8.964;2023-06-22T03:12:40;99070.75;;;17.25;100.00
8318;BME280;4196;48.926;8.964;2023-06-22T03:15:27;99040.56;;;17.13;100.00
8318;BME280;4196;48.926;8.964;2023-06-22T03:18:15;99060.34;;;17.24;100.00
8318;BME280;4196;48.926;8.964;2023-06-22T03:21:02;99011.41;;;16.96;100.00
8318;BME280;4196;48.926;8.964;2023-06-22T03:23:50;99047.25;;;17.24;100.00
8318;BME280;4196;48.926;8.964;2023-06-22T03:26:37;99019.13;;;17.01;100.00
8318;BME280;4196;48.926;8.964;2023-06-22T03:29:23;99016.28;;;17.08;100.00
8318;BME280;4196;48.926;8.964;2023-06-22T03:32:14;99020.56;;;17.11;100.00
8318;BME280;4196;48.926;8.964;2023-06-22T03:35:01;99045.25;;;17.32;100.00
8318;BME280;4196;48.926;8.964;2023-06-22T03:37:48;98999.72;;;17.08;100.00
8318;BME280;4196;48.926;8.964;2023-06-22T03:40:35;99023.72;;;17.22;100.00
8318;BME280;4196;48.926;8.964;2023-06-22T03:43:23;99024.56;;;17.23;100.00
8318;BME280;4196;48.926;8.964;2023-06-22T03:46:09;99006.47;;;17.17;100.00
8318;BME280;4196;48.926;8.964;2023-06-22T03:48:56;99020.88;;;17.30;100.00
8318;BME280;4196;48.926;8.964;2023-06-22T03:51:42;99029.38;;;17.38;100.00
8318;BME280;4196;48.926;8.964;2023-06-22T03:54:29;99036.16;;;17.44;100.00
8318;BME280;4196;48.926;8.964;2023-06-22T03:57:16;99018.16;;;17.33;100.00
8318;BME280;4196;48.926;8.964;2023-06-22T04:00:03;99001.94;;;17.22;100.00
8318;BME280;4196;48.926;8.964;2023-06-22T04:02:57;99022.31;;;17.40;100.00
8318;BME280;4196;48.926;8.964;2023-06-22T04:14:44;98985.84;;;17.62;100.00
8318;BME280;4196;48.926;8.964;2023-06-22T04:17:30;99012.97;;;17.88;100.00
8318;BME280;4196;48.926;8.964;2023-06-22T04:20:16;99039.88;;;18.19;100.00
8318;BME280;4196;48.926;8.964;2023-06-22T04:23:03;99010.88;;;18.24;100.00
8318;BME280;4196;48.926;8.964;2023-06-22T04:25:49;99007.78;;;18.38;100.00
8318;BME280;4196;48.926;8.964;2023-06-22T04:28:37;98992.81;;;18.41;100.00
8318;BME280;4196;48.926;8.964;2023-06-22T04:31:24;98987.22;;;18.50;100.00
8318;BME280;4196;48.926;8.964;2023-06-22T04:34:18;99013.28;;;18.80;100.00
8318;BME280;4196;48.926;8.964;2023-06-22T04:37:05;99020.47;;;18.98;100.00
8318;BME280;4196;48.926;8.964;2023-06-22T04:39:51;99012.41;;;19.03;100.00
8318;BME280;4196;48.926;8.964;2023-06-22T04:42:38;98978.47;;;18.98;100.00
8318;BME280;4196;48.926;8.964;2023-06-22T04:45:25;99023.03;;;19.45;100.00
8318;BME280;4196;48.926;8.964;2023-06-22T04:48:12;99020.13;;;19.75;100.00
8318;BME280;4196;48.926;8.964;2023-06-22T04:51:02;98954.44;;;19.75;100.00
8318;BME280;4196;48.926;8.964;2023-06-22T04:53:50;98974.38;;;20.21;100.00
8318;BME280;4196;48.926;8.964;2023-06-22T04:56:37;98988.41;;;20.61;100.00
8318;BME280;4196;48.926;8.964;2023-06-22T04:59:24;98960.28;;;20.63;100.00
8318;BME280;4196;48.926;8.964;2023-06-22T05:02:15;98979.22;;;20.90;100.00
8318;BME280;4196;48.926;8.964;2023-06-22T05:05:01;98981.28;;;21.21;100.00
8318;BME280;4196;48.926;8.964;2023-06-22T05:07:56;98990.03;;;21.77;100.00
8318;BME280;4196;48.926;8.964;2023-06-22T05:10:46;98987.19;;;22.67;100.00
8318;BME280;4196;48.926;8.964;2023-06-22T05:13:50;98967.50;;;23.37;100.00
8318;BME280;4196;48.926;8.964;2023-06-22T05:16:36;98991.44;;;24.26;94.24
8318;BME280;4196;48.926;8.964;2023-06-22T05:19:23;98976.09;;;24.47;89.31
8318;BME280;4196;48.926;8.964;2023-06-22T05:22:10;98980.75;;;24.72;85.71
8318;BME280;4196;48.926;8.964;2023-06-22T05:24:58;98962.03;;;24.90;85.61
8318;BME280;4196;48.926;8.964;2023-06-22T05:27:45;98963.69;;;25.46;82.39
8318;BME280;4196;48.926;8.964;2023-06-22T05:30:32;98980.00;;;25.94;79.59
8318;BME280;4196;48.926;8.964;2023-06-22T05:33:19;98957.22;;;26.17;75.78
8318;BME280;4196;48.926;8.964;2023-06-22T05:36:05;98973.94;;;26.70;74.72
8318;BME280;4196;48.926;8.964;2023-06-22T05:38:52;98985.78;;;26.90;72.67
8318;BME280;4196;48.926;8.964;2023-06-22T05:41:39;98968.25;;;26.88;70.04
8318;BME280;4196;48.926;8.964;2023-06-22T05:44:26;98947.69;;;26.66;71.66
8318;BME280;4196;48.926;8.964;2023-06-22T05:47:13;98971.41;;;27.06;66.47
8318;BME280;4196;48.926;8.964;2023-06-22T05:49:59;98958.19;;;26.29;70.78
8318;BME280;4196;48.926;8.964;2023-06-22T05:52:45;98973.88;;;26.32;71.07
8318;BME280;4196;48.926;8.964;2023-06-22T05:55:32;98945.75;;;26.17;73.17
8318;BME280;4196;48.926;8.964;2023-06-22T05:58:21;98925.25;;;26.06;75.03
8318;BME280;4196;48.926;8.964;2023-06-22T06:01:07;98950.13;;;26.31;71.03
8318;BME280;4196;48.926;8.964;2023-06-22T06:03:53;98950.56;;;26.50;71.18
8318;BME280;4196;48.926;8.964;2023-06-22T06:06:40;98967.22;;;26.26;69.38
8318;BME280;4196;48.926;8.964;2023-06-22T06:09:26;98934.81;;;26.09;71.53
8318;BME280;4196;48.926;8.964;2023-06-22T06:12:13;98964.94;;;25.95;72.96
8318;BME280;4196;48.926;8.964;2023-06-22T06:14:59;98921.09;;;25.49;75.52
8318;BME280;4196;48.926;8.964;2023-06-22T06:20:34;98969.00;;;25.19;77.08
8318;BME280;4196;48.926;8.964;2023-06-22T06:23:21;98952.13;;;25.06;80.72
8318;BME280;4196;48.926;8.964;2023-06-22T06:26:08;98963.31;;;25.11;76.84
8318;BME280;4196;48.926;8.964;2023-06-22T06:28:55;98935.63;;;24.74;78.67
8318;BME280;4196;48.926;8.964;2023-06-22T06:31:42;98970.16;;;24.72;78.05
8318;BME280;4196;48.926;8.964;2023-06-22T06:34:28;98952.66;;;24.55;79.93
8318;BME280;4196;48.926;8.964;2023-06-22T06:37:16;98959.75;;;24.55;82.17
8318;BME280;4196;48.926;8.964;2023-06-22T06:40:10;98957.69;;;24.60;84.05
8318;BME280;4196;48.926;8.964;2023-06-22T06:42:57;98958.31;;;24.78;84.39
8318;BME280;4196;48.926;8.964;2023-06-22T06:45:43;98961.25;;;24.88;82.71
8318;BME280;4196;48.926;8.964;2023-06-22T06:48:30;98961.63;;;25.10;80.74
8318;BME280;4196;48.926;8.964;2023-06-22T06:51:16;98943.72;;;24.99;81.94
8318;BME280;4196;48.926;8.964;2023-06-22T06:54:03;98958.38;;;25.34;79.19
8318;BME280;4196;48.926;8.964;2023-06-22T06:56:49;98955.56;;;25.22;79.61
8318;BME280;4196;48.926;8.964;2023-06-22T06:59:36;98940.19;;;25.27;76.97
8318;BME280;4196;48.926;8.964;2023-06-22T07:02:25;98944.50;;;25.43;79.38
8318;BME280;4196;48.926;8.964;2023-06-22T07:05:14;98941.44;;;25.49;80.46
8318;BME280;4196;48.926;8.964;2023-06-22T07:08:01;98949.22;;;25.65;79.37
8318;BME280;4196;48.926;8.964;2023-06-22T07:10:47;98911.84;;;25.55;79.99
8318;BME280;4196;48.926;8.964;2023-06-22T07:13:34;98886.56;;;25.37;78.38
8318;BME280;4196;48.926;8.964;2023-06-22T07:16:20;98928.91;;;25.78;78.79
8318;BME280;4196;48.926;8.964;2023-06-22T07:19:07;98923.13;;;25.86;77.18
8318;BME280;4196;48.926;8.964;2023-06-22T07:21:55;98905.91;;;25.78;78.62
8318;BME280;4196;48.926;8.964;2023-06-22T07:24:42;98897.31;;;25.88;75.49
8318;BME280;4196;48.926;8.964;2023-06-22T07:27:29;98868.69;;;25.53;71.59
8318;BME280;4196;48.926;8.964;2023-06-22T07:30:21;98909.66;;;25.62;72.44
8318;BME280;4196;48.926;8.964;2023-06-22T07:33:07;98879.31;;;25.53;73.81
8318;BME280;4196;48.926;8.964;2023-06-22T07:35:55;98879.09;;;25.56;76.74
8318;BME280;4196;48.926;8.964;2023-06-22T07:38:41;98888.63;;;25.86;73.98
8318;BME280;4196;48.926;8.964;2023-06-22T07:41:28;98869.00;;;26.01;73.36
8318;BME280;4196;48.926;8.964;2023-06-22T07:44:14;98894.91;;;25.97;73.07
8318;BME280;4196;48.926;8.964;2023-06-22T07:47:00;98897.44;;;26.24;70.89
8318;BME280;4196;48.926;8.964;2023-06-22T07:49:47;98898.09;;;26.41;68.63
8318;BME280;4196;48.926;8.964;2023-06-22T07:52:33;98881.97;;;26.18;69.36
8318;BME280;4196;48.926;8.964;2023-06-22T07:55:19;98881.97;;;26.18;67.70
8318;BME280;4196;48.926;8.964;2023-06-22T07:58:06;98900.63;;;26.30;72.85
8318;BME280;4196;48.926;8.964;2023-06-22T08:00:53;98900.72;;;26.41;70.53
8318;BME280;4196;48.926;8.964;2023-06-22T08:03:39;98870.16;;;26.48;67.83
8318;BME280;4196;48.926;8.964;2023-06-22T08:06:26;98896.59;;;26.37;68.11
8318;BME280;4196;48.926;8.964;2023-06-22T08:09:12;98904.88;;;26.45;68.29
8318;BME280;4196;48.926;8.964;2023-06-22T08:11:59;98883.22;;;26.38;71.37
8318;BME280;4196;48.926;8.964;2023-06-22T08:14:45;98912.00;;;26.70;69.15
8318;BME280;4196;48.926;8.964;2023-06-22T08:17:32;98898.66;;;26.83;66.63
8318;BME280;4196;48.926;8.964;2023-06-22T08:20:19;98910.03;;;26.85;67.87
8318;BME280;4196;48.926;8.964;2023-06-22T08:23:05;98900.34;;;26.84;69.34
8318;BME280;4196;48.926;8.964;2023-06-22T08:25:52;98902.31;;;27.06;67.18
8318;BME280;4196;48.926;8.964;2023-06-22T08:28:39;98877.63;;;27.16;68.64
8318;BME280;4196;48.926;8.964;2023-06-22T08:31:25;98838.59;;;27.17;67.82
8318;BME280;4196;48.926;8.964;2023-06-22T08:34:12;98899.59;;;27.66;67.63
8318;BME280;4196;48.926;8.964;2023-06-22T08:37:02;98897.75;;;27.91;67.41
8318;BME280;4196;48.926;8.964;2023-06-22T08:39:52;98883.13;;;27.85;62.43
8318;BME280;4196;48.926;8.964;2023-06-22T08:42:40;98921.78;;;28.13;62.55
8318;BME280;4196;48.926;8.964;2023-06-22T08:45:27;98923.06;;;27.97;65.98
8318;BME280;4196;48.926;8.964;2023-06-22T08:48:16;98918.06;;;27.81;67.33
8318;BME280;4196;48.926;8.964;2023-06-22T08:51:02;98902.50;;;27.63;67.42
8318;BME280;4196;48.926;8.964;2023-06-22T08:53:49;98927.50;;;27.61;66.47
8318;BME280;4196;48.926;8.964;2023-06-22T08:56:36;99002.78;;;27.74;64.10
8318;BME280;4196;48.926;8.964;2023-06-22T08:59:23;98978.97;;;27.49;66.55
8318;BME280;4196;48.926;8.964;2023-06-22T09:02:09;98929.97;;;27.40;66.27
8318;BME280;4196;48.926;8.964;2023-06-22T09:05:02;98916.16;;;27.59;62.02
8318;BME280;4196;48.926;8.964;2023-06-22T09:07:49;98923.94;;;27.49;66.84
8318;BME280;4196;48.926;8.964;2023-06-22T09:10:35;98913.19;;;27.75;65.15
8318;BME280;4196;48.926;8.964;2023-06-22T09:13:22;98879.94;;;27.45;63.90
8318;BME280;4196;48.926;8.964;2023-06-22T09:16:09;98858.00;;;27.30;63.20
8318;BME280;4196;48.926;8.964;2023-06-22T09:18:55;98846.56;;;27.41;63.73
8318;BME280;4196;48.926;8.964;2023-06-22T09:21:42;98868.59;;;27.54;62.63
8318;BME280;4196;48.926;8.964;2023-06-22T09:24:28;98837.25;;;27.11;63.07
8318;BME280;4196;48.926;8.964;2023-06-22T09:27:15;98852.19;;;27.25;64.98
8318;BME280;4196;48.926;8.964;2023-06-22T09:30:02;98836.19;;;27.14;66.98
8318;BME280;4196;48.926;8.964;2023-06-22T09:32:49;98809.66;;;26.64;65.47
8318;BME280;4196;48.926;8.964;2023-06-22T09:35:36;98841.13;;;26.94;69.55
8318;BME280;4196;48.926;8.964;2023-06-22T09:38:23;98841.25;;;26.93;66.47
8318;BME280;4196;48.926;8.964;2023-06-22T09:41:09;98860.03;;;27.27;64.33
8318;BME280;4196;48.926;8.964;2023-06-22T09:43:56;98858.16;;;27.16;64.43
8318;BME280;4196;48.926;8.964;2023-06-22T09:46:42;98805.63;;;27.19;65.61
8318;BME280;4196;48.926;8.964;2023-06-22T09:49:29;98857.84;;;27.56;67.90
8318;BME280;4196;48.926;8.964;2023-06-22T09:52:32;98821.25;;;27.70;64.43
8318;BME280;4196;48.926;8.964;2023-06-22T09:55:33;98827.28;;;27.73;63.19
8318;BME280;4196;48.926;8.964;2023-06-22T09:58:20;98839.47;;;27.99;62.70
8318;BME280;4196;48.926;8.964;2023-06-22T10:01:06;98847.47;;;28.22;61.58
8318;BME280;4196;48.926;8.964;2023-06-22T10:03:53;98804.50;;;28.15;59.42
8318;BME280;4196;48.926;8.964;2023-06-22T10:06:42;98841.69;;;28.50;59.94
8318;BME280;4196;48.926;8.964;2023-06-22T10:09:29;98770.84;;;28.36;59.09
8318;BME280;4196;48.926;8.964;2023-06-22T10:12:15;98802.13;;;28.78;57.08
8318;BME280;4196;48.926;8.964;2023-06-22T10:15:02;98825.59;;;28.95;57.08
8318;BME280;4196;48.926;8.964;2023-06-22T10:17:49;98767.50;;;28.78;56.97
8318;BME280;4196;48.926;8.964;2023-06-22T10:20:36;98794.56;;;29.05;57.12
8318;BME280;4196;48.926;8.964;2023-06-22T10:23:22;98801.06;;;29.12;56.88
8318;BME280;4196;48.926;8.964;2023-06-22T10:26:09;98817.19;;;29.43;57.31
8318;BME280;4196;48.926;8.964;2023-06-22T10:28:56;98793.22;;;29.53;60.13
8318;BME280;4196;48.926;8.964;2023-06-22T10:32:02;98780.31;;;29.69;56.87
8318;BME280;4196;48.926;8.964;2023-06-22T10:34:48;98786.84;;;29.86;55.97
8318;BME280;4196;48.926;8.964;2023-06-22T10:37:35;98787.25;;;29.81;53.75
8318;BME280;4196;48.926;8.964;2023-06-22T10:40:21;98768.63;;;29.70;55.31
8318;BME280;4196;48.926;8.964;2023-06-22T10:43:08;98769.88;;;29.87;56.18
8318;BME280;4196;48.926;8.964;2023-06-22T10:45:54;98758.16;;;30.09;55.34
8318;BME280;4196;48.926;8.964;2023-06-22T10:48:41;98771.91;;;30.35;55.74
8318;BME280;4196;48.926;8.964;2023-06-22T10:51:27;98786.06;;;30.26;53.01
8318;BME280;4196;48.926;8.964;2023-06-22T10:54:14;98763.44;;;29.99;52.54
8318;BME280;4196;48.926;8.964;2023-06-22T10:57:03;98755.75;;;30.16;54.90
8318;BME280;4196;48.926;8.964;2023-06-22T10:59:50;98762.16;;;30.34;53.54
8318;BME280;4196;48.926;8.964;2023-06-22T11:02:36;98760.13;;;29.76;53.40
8318;BME280;4196;48.926;8.964;2023-06-22T11:05:22;98761.59;;;29.90;53.67
8318;BME280;4196;48.926;8.964;2023-06-22T11:08:09;98753.91;;;30.06;53.07
8318;BME280;4196;48.926;8.964;2023-06-22T11:10:55;98770.50;;;30.10;52.86
8318;BME280;4196;48.926;8.964;2023-06-22T11:13:42;98776.38;;;30.04;53.75
8318;BME280;4196;48.926;8.964;2023-06-22T11:16:28;98750.75;;;30.22;54.78
8318;BME280;4196;48.926;8.964;2023-06-22T11:19:15;98751.91;;;30.20;53.76
8318;BME280;4196;48.926;8.964;2023-06-22T11:22:02;98750.38;;;30.37;52.15
8318;BME280;4196;48.926;8.964;2023-06-22T11:24:49;98750.81;;;30.11;53.22
8318;BME280;4196;48.926;8.964;2023-06-22T11:27:35;98768.06;;;30.28;54.72
8318;BME280;4196;48.926;8.964;2023-06-22T11:30:22;98739.38;;;30.30;53.72
8318;BME280;4196;48.926;8.964;2023-06-22T11:33:09;98752.53;;;30.62;58.67
8318;BME280;4196;48.926;8.964;2023-06-22T11:35:55;98755.50;;;30.69;51.69
8318;BME280;4196;48.926;8.964;2023-06-22T11:38:43;98733.56;;;30.15;52.51
8318;BME280;4196;48.926;8.964;2023-06-22T11:41:29;98731.94;;;30.24;54.11
8318;BME280;4196;48.926;8.964;2023-06-22T11:44:16;98710.63;;;30.03;54.00
8318;BME280;4196;48.926;8.964;2023-06-22T11:47:02;98725.63;;;29.64;53.88
8318;BME280;4196;48.926;8.964;2023-06-22T11:49:50;98717.13;;;29.28;55.25
8318;BME280;4196;48.926;8.964;2023-06-22T11:52:36;98702.97;;;29.37;56.06
8318;BME280;4196;48.926;8.964;2023-06-22T11:55:23;98723.09;;;29.41;57.00
8318;BME280;4196;48.926;8.964;2023-06-22T11:58:10;98744.34;;;29.52;57.48
8318;BME280;4196;48.926;8.964;2023-06-22T12:00:57;98745.22;;;29.32;57.10
8318;BME280;4196;48.926;8.964;2023-06-22T12:03:44;98732.97;;;29.08;56.68
8318;BME280;4196;48.926;8.964;2023-06-22T12:06:35;98743.06;;;28.94;58.51
8318;BME280;4196;48.926;8.964;2023-06-22T12:09:24;98758.31;;;28.71;58.63
8318;BME280;4196;48.926;8.964;2023-06-22T12:12:10;98761.25;;;28.56;61.18
8318;BME280;4196;48.926;8.964;2023-06-22T12:14:56;98762.25;;;28.44;64.92
8318;BME280;4196;48.926;8.964;2023-06-22T12:17:42;98771.81;;;28.47;68.23
8318;BME280;4196;48.926;8.964;2023-06-22T12:20:29;98743.00;;;28.29;71.15
8318;BME280;4196;48.926;8.964;2023-06-22T12:23:16;98760.56;;;28.43;72.70
8318;BME280;4196;48.926;8.964;2023-06-22T12:26:02;98768.38;;;28.67;72.95
8318;BME280;4196;48.926;8.964;2023-06-22T12:28:49;98731.69;;;28.59;71.96
8318;BME280;4196;48.926;8.964;2023-06-22T12:31:36;98739.16;;;28.77;67.67
8318;BME280;4196;48.926;8.964;2023-06-22T12:34:25;98762.19;;;29.31;60.40
8318;BME280;4196;48.926;8.964;2023-06-22T12:37:11;98731.81;;;29.22;61.10
8318;BME280;4196;48.926;8.964;2023-06-22T12:39:57;98750.66;;;29.30;59.23
8318;BME280;4196;48.926;8.964;2023-06-22T12:42:47;98747.09;;;29.41;59.53
8318;BME280;4196;48.926;8.964;2023-06-22T12:45:33;98754.66;;;29.36;58.35
8318;BME280;4196;48.926;8.964;2023-06-22T12:48:22;98756.72;;;29.53;57.43
8318;BME280;4196;48.926;8.964;2023-06-22T12:51:09;98760.19;;;29.65;57.88
8318;BME280;4196;48.926;8.964;2023-06-22T12:53:56;98768.78;;;29.99;60.81
8318;BME280;4196;48.926;8.964;2023-06-22T12:56:42;98761.63;;;30.40;55.93
8318;BME280;4196;48.926;8.964;2023-06-22T12:59:31;98749.19;;;30.89;52.47
8318;BME280;4196;48.926;8.964;2023-06-22T13:02:18;98768.19;;;30.76;52.03
8318;BME280;4196;48.926;8.964;2023-06-22T13:05:05;98734.66;;;30.63;52.58
8318;BME280;4196;48.926;8.964;2023-06-22T13:07:51;98706.13;;;30.73;53.13
8318;BME280;4196;48.926;8.964;2023-06-22T13:10:38;98712.00;;;30.67;52.48
8318;BME280;4196;48.926;8.964;2023-06-22T13:13:25;98737.41;;;30.82;61.24
8318;BME280;4196;48.926;8.964;2023-06-22T13:16:13;98729.78;;;30.87;62.59
8318;BME280;4196;48.926;8.964;2023-06-22T13:18:59;98751.16;;;31.07;57.16
8318;BME280;4196;48.926;8.964;2023-06-22T13:21:46;98736.97;;;31.06;59.47
8318;BME280;4196;48.926;8.964;2023-06-22T13:24:32;98705.28;;;30.92;58.44
8318;BME280;4196;48.926;8.964;2023-06-22T13:27:18;98702.19;;;30.96;54.37
8318;BME280;4196;48.926;8.964;2023-06-22T13:30:05;98699.94;;;31.01;54.78
8318;BME280;4196;48.926;8.964;2023-06-22T13:32:52;98724.09;;;31.29;53.06
8318;BME280;4196;48.926;8.964;2023-06-22T13:35:39;98721.13;;;31.51;56.81
8318;BME280;4196;48.926;8.964;2023-06-22T13:38:43;98689.88;;;31.52;59.99
8318;BME280;4196;48.926;8.964;2023-06-22T13:41:47;98656.69;;;31.63;57.52
8318;BME280;4196;48.926;8.964;2023-06-22T13:44:33;98695.97;;;32.09;51.69
8318;BME280;4196;48.926;8.964;2023-06-22T13:47:37;98654.09;;;31.90;52.25
8318;BME280;4196;48.926;8.964;2023-06-22T13:50:41;98659.50;;;32.26;53.43
8318;BME280;4196;48.926;8.964;2023-06-22T13:53:27;98657.97;;;32.23;53.64
8318;BME280;4196;48.926;8.964;2023-06-22T13:56:14;98659.88;;;32.31;53.29
8318;BME280;4196;48.926;8.964;2023-06-22T13:59:01;98645.47;;;32.32;54.19
8318;BME280;4196;48.926;8.964;2023-06-22T14:01:47;98621.00;;;32.27;54.56
8318;BME280;4196;48.926;8.964;2023-06-22T14:04:33;98626.06;;;32.30;52.08
8318;BME280;4196;48.926;8.964;2023-06-22T14:07:20;98633.38;;;32.10;52.23
8318;BME280;4196;48.926;8.964;2023-06-22T14:10:07;98602.38;;;31.80;53.39
8318;BME280;4196;48.926;8.964;2023-06-22T14:12:54;98603.28;;;31.71;53.85
8318;BME280;4196;48.926;8.964;2023-06-22T14:15:41;98648.56;;;31.92;54.35
8318;BME280;4196;48.926;8.964;2023-06-22T14:18:29;98654.84;;;31.73;58.50
8318;BME280;4196;48.926;8.964;2023-06-22T14:21:15;98637.69;;;31.66;59.54
8318;BME280;4196;48.926;8.964;2023-06-22T14:24:02;98609.72;;;31.50;57.34
8318;BME280;4196;48.926;8.964;2023-06-22T14:26:49;98639.06;;;31.70;61.87
8318;BME280;4196;48.926;8.964;2023-06-22T14:29:36;98637.97;;;31.63;58.59
8318;BME280;4196;48.926;8.964;2023-06-22T14:32:22;98637.47;;;31.49;57.99
8318;BME280;4196;48.926;8.964;2023-06-22T14:35:09;98644.91;;;31.56;56.23
8318;BME280;4196;48.926;8.964;2023-06-22T14:37:55;98649.84;;;31.60;53.47
8318;BME280;4196;48.926;8.964;2023-06-22T14:40:42;98642.44;;;31.72;51.73
8318;BME280;4196;48.926;8.964;2023-06-22T14:43:49;98646.81;;;31.73;56.64
8318;BME280;4196;48.926;8.964;2023-06-22T14:46:35;98622.22;;;31.60;57.22
8318;BME280;4196;48.926;8.964;2023-06-22T14:49:22;98644.25;;;32.09;54.27
8318;BME280;4196;48.926;8.964;2023-06-22T14:52:09;98600.78;;;32.15;47.77
8318;BME280;4196;48.926;8.964;2023-06-22T14:54:55;98610.78;;;32.40;44.55
8318;BME280;4196;48.926;8.964;2023-06-22T14:57:42;98624.53;;;32.45;42.37
8318;BME280;4196;48.926;8.964;2023-06-22T15:00:29;98600.63;;;32.34;44.05
8318;BME280;4196;48.926;8.964;2023-06-22T15:03:15;98612.19;;;32.35;45.90
8318;BME280;4196;48.926;8.964;2023-06-22T15:06:08;98609.97;;;32.30;48.34
8318;BME280;4196;48.926;8.964;2023-06-22T15:08:55;98579.50;;;32.31;49.13
8318;BME280;4196;48.926;8.964;2023-06-22T15:11:42;98599.31;;;32.38;48.53
8318;BME280;4196;48.926;8.964;2023-06-22T15:14:28;98612.66;;;32.30;50.12
8318;BME280;4196;48.926;8.964;2023-06-22T15:17:16;98596.91;;;31.99;50.68
8318;BME280;4196;48.926;8.964;2023-06-22T15:20:03;98588.31;;;31.78;51.64
8318;BME280;4196;48.926;8.964;2023-06-22T15:22:52;98594.00;;;31.65;53.17
8318;BME280;4196;48.926;8.964;2023-06-22T15:25:39;98585.25;;;31.45;52.73